createdAt,value
2018-02-19T00:01:00.814Z,28.92
2018-02-19T00:03:33.176Z,27.27
2018-02-19T00:06:05.690Z,26.62
2018-02-19T00:08:40.494Z,26.62
2018-02-19T00:11:20.551Z,26.77
2018-02-19T00:13:56.712Z,27.25
2018-02-19T00:16:28.766Z,27.35
2018-02-19T00:19:01.156Z,27.92
2018-02-19T00:21:31.133Z,26.30
2018-02-19T00:24:03.758Z,26.08
2018-02-19T00:26:34.434Z,26.85
2018-02-19T00:29:04.068Z,25.75
2018-02-19T00:31:34.576Z,26.15
2018-02-19T00:34:05.009Z,26.52
2018-02-19T00:36:35.139Z,26.45
2018-02-19T00:39:07.080Z,27.40
2018-02-19T00:41:36.440Z,27.10
2018-02-19T00:44:07.265Z,27.98
2018-02-19T00:46:46.802Z,26.90
2018-02-19T00:49:16.201Z,28.58
2018-02-19T00:51:49.275Z,28.45
2018-02-19T00:54:19.829Z,27.83
2018-02-19T00:56:59.265Z,26.15
2018-02-19T00:59:30.918Z,30.15
2018-02-19T01:02:00.866Z,27.48
2018-02-19T01:04:31.089Z,26.37
2018-02-19T01:07:01.848Z,25.73
2018-02-19T01:09:31.516Z,25.30
2018-02-19T01:12:05.405Z,26.23
2018-02-19T01:14:34.772Z,24.35
2018-02-19T01:17:06.161Z,24.67
2018-02-19T01:19:35.893Z,28.30
2018-02-19T01:22:11.985Z,27.45
2018-02-19T01:24:41.971Z,27.25
2018-02-19T01:27:12.837Z,26.65
2018-02-19T01:29:51.866Z,24.55
2018-02-19T01:32:22.350Z,25.95
2018-02-19T01:34:53.580Z,24.75
2018-02-19T01:37:32.535Z,26.27
2018-02-19T01:40:03.786Z,25.55
2018-02-19T01:42:53.972Z,25.27
2018-02-19T01:45:27.576Z,25.17
2018-02-19T01:47:57.612Z,26.27
2018-02-19T01:50:27.840Z,24.15
2018-02-19T01:53:04.510Z,25.33
2018-02-19T01:55:36.143Z,24.90
2018-02-19T01:58:21.013Z,25.90
2018-02-19T02:00:52.103Z,24.50
2018-02-19T02:03:23.473Z,26.23
2018-02-19T02:05:55.461Z,25.12
2018-02-19T02:08:26.082Z,27.10
2018-02-19T02:10:57.744Z,26.12
2018-02-19T02:13:29.303Z,24.90
2018-02-19T02:16:00.957Z,26.92
2018-02-19T02:18:33.466Z,26.83
2018-02-19T02:21:12.721Z,26.48
2018-02-19T02:26:27.284Z,25.73
2018-02-19T02:29:01.658Z,28.40
2018-02-19T02:31:33.516Z,26.92
2018-02-19T02:34:04.055Z,26.67
2018-02-19T02:36:34.062Z,26.65
2018-02-19T02:39:03.877Z,26.67
2018-02-19T02:41:34.650Z,24.35
2018-02-19T02:44:05.377Z,25.65
2018-02-19T02:46:35.240Z,26.87
2018-02-19T02:49:07.252Z,25.50
2018-02-19T02:51:39.075Z,25.95
2018-02-19T02:54:16.816Z,25.77
2018-02-19T02:56:57.632Z,27.08
2018-02-19T02:59:36.617Z,28.73
2018-02-19T03:02:07.449Z,29.33
2018-02-19T03:04:38.184Z,29.40
2018-02-19T03:09:52.549Z,27.73
2018-02-19T03:12:25.718Z,27.80
2018-02-19T03:15:04.209Z,27.40
2018-02-19T03:17:34.173Z,26.17
2018-02-19T03:20:27.551Z,26.17
2018-02-19T03:22:58.985Z,26.85
2018-02-19T03:25:28.796Z,25.75
2018-02-19T03:27:58.838Z,26.12
2018-02-19T03:30:33.912Z,25.45
2018-02-19T03:33:05.154Z,26.90
2018-02-19T03:35:46.464Z,26.10
2018-02-19T03:38:38.937Z,26.08
2018-02-19T03:41:21.206Z,26.75
2018-02-19T03:44:04.064Z,26.40
2018-02-19T03:54:35.764Z,26.67
2018-02-19T03:57:21.701Z,26.05
2018-02-19T04:00:02.717Z,27.73
2018-02-19T04:02:33.936Z,26.42
2018-02-19T04:05:03.773Z,26.90
2018-02-19T04:07:33.794Z,28.05
2018-02-19T04:10:04.499Z,27.30
2018-02-19T04:12:34.902Z,27.02
2018-02-19T04:15:21.917Z,26.80
2018-02-19T04:18:24.204Z,27.58
2018-02-19T04:20:56.215Z,28.50
2018-02-19T04:23:27.350Z,28.17
2018-02-19T04:25:57.359Z,29.35
2018-02-19T04:28:28.155Z,29.87
2018-02-19T04:30:58.906Z,29.40
2018-02-19T04:33:28.859Z,29.42
2018-02-19T04:36:03.141Z,29.60
2018-02-19T04:38:34.678Z,26.30
2018-02-19T04:41:08.011Z,26.45
2018-02-19T04:43:38.727Z,28.45
2018-02-19T04:46:08.776Z,29.30
2018-02-19T04:48:39.683Z,28.52
2018-02-19T04:51:10.536Z,28.45
2018-02-19T04:53:41.977Z,28.42
2018-02-19T04:56:27.364Z,29.67
2018-02-19T04:58:57.509Z,27.77
2018-02-19T05:01:27.904Z,28.45
2018-02-19T05:03:59.565Z,29.87
2018-02-19T05:06:30.521Z,26.45
2018-02-19T05:09:01.032Z,27.17
2018-02-19T05:11:31.683Z,26.80
2018-02-19T05:14:02.203Z,28.87
2018-02-19T05:16:34.049Z,29.48
2018-02-19T05:19:05.181Z,28.52
2018-02-19T05:21:35.867Z,30.27
2018-02-19T05:24:06.158Z,29.27
2018-02-19T05:26:36.464Z,28.87
2018-02-19T05:29:08.448Z,28.92
2018-02-19T05:31:39.267Z,29.25
2018-02-19T05:34:13.175Z,29.40
2018-02-19T05:36:54.509Z,28.67
2018-02-19T05:39:25.192Z,28.38
2018-02-19T05:41:58.085Z,28.62
2018-02-19T05:44:28.927Z,30.50
2018-02-19T05:47:00.065Z,29.75
2018-02-19T05:49:29.957Z,29.63
2018-02-19T05:51:59.796Z,32.08
2018-02-19T05:54:37.864Z,30.48
2018-02-19T05:57:25.373Z,30.30
2018-02-19T06:00:21.636Z,29.70
2018-02-19T06:03:09.327Z,29.98
2018-02-19T06:05:52.328Z,29.98
2018-02-19T06:08:22.297Z,29.55
2018-02-19T06:11:04.027Z,28.42
2018-02-19T06:13:48.596Z,27.17
2018-02-19T06:16:28.768Z,25.20
2018-02-19T06:19:00.828Z,24.87
2018-02-19T06:21:33.429Z,24.48
2018-02-19T06:24:03.744Z,26.98
2018-02-19T06:27:21.866Z,30.40
2018-02-19T06:30:27.197Z,26.35
2018-02-19T06:33:01.783Z,25.92
2018-02-19T06:35:41.926Z,25.02
2018-02-19T06:38:14.061Z,26.05
2018-02-19T06:40:45.508Z,25.35
2018-02-19T06:43:37.950Z,26.83
2018-02-19T06:46:11.699Z,30.05
2018-02-19T06:48:50.369Z,28.95
2018-02-19T06:51:25.150Z,28.62
2018-02-19T06:54:05.074Z,28.45
2018-02-19T06:56:39.350Z,27.23
2018-02-19T06:59:10.891Z,26.85
2018-02-19T07:01:45.618Z,28.55
2018-02-19T07:04:26.609Z,27.48
2018-02-19T07:07:14.121Z,27.40
2018-02-19T07:09:59.707Z,26.27
2018-02-19T07:12:33.179Z,27.83
2018-02-19T07:18:27.615Z,26.35
2018-02-19T07:27:00.115Z,25.50
2018-02-19T07:29:38.107Z,24.80
2018-02-19T07:32:12.731Z,27.92
2018-02-19T07:34:52.566Z,28.23
2018-02-19T07:38:32.121Z,26.08
2018-02-19T07:41:05.586Z,26.77
2018-02-19T07:43:42.645Z,26.27
2018-02-19T07:46:15.008Z,26.83
2018-02-19T07:48:55.539Z,26.35
2018-02-19T07:54:14.521Z,25.15
2018-02-19T07:57:23.224Z,27.73
2018-02-19T08:00:08.834Z,26.90
2018-02-19T08:02:41.985Z,27.20
2018-02-19T08:05:14.363Z,24.48
2018-02-19T08:14:32.338Z,26.05
2018-02-19T08:17:05.061Z,28.75
2018-02-19T08:19:48.552Z,29.42
2018-02-19T08:22:28.945Z,28.80
2018-02-19T08:25:01.567Z,30.95
2018-02-19T08:27:38.123Z,30.27
2018-02-19T08:30:12.668Z,29.27
2018-02-19T08:32:43.039Z,29.75
2018-02-19T08:35:22.086Z,30.90
2018-02-19T08:37:52.806Z,29.33
2018-02-19T08:40:24.374Z,28.95
2018-02-19T08:42:55.885Z,34.50
2018-02-19T08:45:27.594Z,28.50
2018-02-19T08:47:58.764Z,29.37
2018-02-19T08:50:31.032Z,27.08
2018-02-19T08:53:03.142Z,29.20
2018-02-19T08:55:36.214Z,30.00
2018-02-19T08:58:15.600Z,30.02
2018-02-19T09:03:45.499Z,29.27
2018-02-19T09:06:32.236Z,29.98
2018-02-19T09:09:18.464Z,29.33
2018-02-19T09:12:13.147Z,28.95
2018-02-19T09:14:53.459Z,27.83
2018-02-19T09:17:38.419Z,29.02
2018-02-19T09:20:17.404Z,28.80
2018-02-19T09:25:57.785Z,28.30
2018-02-19T09:28:49.736Z,28.70
2018-02-19T09:31:41.843Z,27.50
2018-02-19T09:34:17.747Z,27.13
2018-02-19T09:37:08.517Z,27.40
2018-02-19T09:39:44.596Z,24.42
2018-02-19T09:42:21.432Z,23.00
2018-02-19T09:44:56.081Z,22.80
2018-02-19T09:50:18.413Z,24.92
2018-02-19T09:52:52.810Z,19.62
2018-02-19T09:55:53.055Z,18.55
2018-02-19T09:58:33.121Z,18.77
2018-02-19T10:01:12.607Z,21.20
2018-02-19T10:03:56.707Z,18.27
2018-02-19T10:07:11.903Z,16.98
2018-02-19T10:09:54.587Z,17.97
2018-02-19T10:12:35.256Z,19.65
2018-02-19T10:15:36.457Z,18.97
2018-02-19T10:18:43.419Z,18.10
2018-02-19T10:25:22.907Z,18.87
2018-02-19T10:27:55.748Z,16.77
2018-02-19T10:30:40.469Z,16.83
2018-02-19T10:33:17.468Z,16.17
2018-02-19T10:35:49.324Z,14.87
2018-02-19T10:38:30.168Z,15.20
2018-02-19T10:41:00.856Z,15.90
2018-02-19T10:43:33.221Z,15.50
2018-02-19T10:46:13.892Z,15.03
2018-02-19T10:48:47.482Z,14.40
2018-02-19T10:51:23.712Z,14.10
2018-02-19T10:53:55.290Z,14.27
2018-02-19T10:56:34.291Z,14.33
2018-02-19T10:59:33.799Z,14.33
2018-02-19T11:02:16.719Z,13.77
2018-02-19T11:07:38.442Z,12.90
2018-02-19T11:10:23.231Z,13.30
2018-02-19T11:13:42.204Z,13.20
2018-02-19T11:19:55.275Z,13.53
2018-02-19T11:22:32.042Z,12.70
2018-02-19T11:25:05.074Z,13.03
2018-02-19T11:27:48.338Z,13.60
2018-02-19T11:30:48.999Z,13.47
2018-02-19T11:33:37.969Z,13.70
2018-02-19T11:36:09.705Z,12.87
2018-02-19T11:38:43.195Z,11.53
2018-02-19T11:41:18.726Z,11.37
2018-02-19T11:43:55.769Z,10.33
2018-02-19T11:46:37.620Z,9.43
2018-02-19T11:49:08.617Z,11.20
2018-02-19T11:51:47.205Z,12.27
2018-02-19T11:54:18.042Z,10.23
2018-02-19T11:56:49.148Z,10.37
2018-02-19T11:59:19.373Z,10.33
2018-02-19T12:01:59.173Z,11.77
2018-02-19T12:11:56.654Z,10.47
2018-02-19T12:21:28.720Z,12.13
2018-02-19T12:24:19.749Z,11.50
2018-02-19T12:26:51.402Z,11.50
2018-02-19T12:32:39.124Z,10.20
2018-02-19T12:35:49.485Z,10.70
2018-02-19T12:38:40.508Z,11.00
2018-02-19T12:41:15.624Z,10.83
2018-02-19T12:43:54.861Z,10.60
2018-02-19T12:46:26.880Z,10.87
2018-02-19T12:48:58.249Z,10.70
2018-02-19T12:52:39.787Z,12.30
2018-02-19T12:56:03.063Z,11.93
2018-02-19T12:58:36.739Z,11.07
2018-02-19T13:05:42.262Z,11.60
2018-02-19T13:14:52.143Z,12.63
2018-02-19T13:17:57.609Z,11.93
2018-02-19T13:20:53.375Z,12.50
2018-02-19T13:23:57.564Z,11.83
2018-02-19T13:26:46.564Z,12.17
2018-02-19T13:29:25.934Z,12.37
2018-02-19T13:32:01.604Z,11.63
2018-02-19T13:37:55.999Z,12.13
2018-02-19T13:40:27.770Z,14.30
2018-02-19T13:43:20.935Z,13.60
2018-02-19T13:52:01.346Z,13.00
2018-02-19T13:55:24.746Z,14.87
2018-02-19T14:04:36.625Z,20.43
2018-02-19T14:07:30.439Z,12.20
2018-02-19T14:10:02.749Z,12.10
2018-02-19T14:12:54.592Z,12.27
2018-02-19T14:15:25.753Z,11.13
2018-02-19T14:18:10.297Z,10.73
2018-02-19T14:20:45.342Z,11.40
2018-02-19T14:23:22.562Z,10.20
2018-02-19T14:25:59.668Z,11.17
2018-02-19T14:28:37.002Z,11.27
2018-02-19T14:31:08.140Z,11.40
2018-02-19T14:34:12.068Z,10.50
2018-02-19T14:36:53.837Z,12.10
2018-02-19T14:42:28.946Z,10.37
2018-02-19T14:45:12.652Z,10.63
2018-02-19T14:47:59.322Z,11.47
2018-02-19T14:50:37.024Z,11.07
2018-02-19T14:53:15.184Z,11.07
2018-02-19T14:56:01.737Z,11.07
2018-02-19T14:58:52.384Z,11.37
2018-02-19T15:01:53.446Z,12.40
2018-02-19T15:07:31.114Z,11.63
2018-02-19T15:18:02.318Z,11.13
2018-02-19T15:24:47.519Z,11.00
2018-02-19T15:27:28.223Z,11.80
2018-02-19T15:30:30.230Z,10.40
2018-02-19T15:33:42.080Z,10.87
2018-02-19T15:36:17.057Z,11.10
2018-02-19T15:38:52.308Z,10.07
2018-02-19T15:41:56.416Z,9.90
2018-02-19T15:44:46.717Z,11.37
2018-02-19T15:48:04.094Z,11.57
2018-02-19T16:00:25.371Z,13.57
2018-02-19T16:04:00.429Z,13.20
2018-02-19T16:07:20.349Z,13.93
2018-02-19T16:10:20.330Z,13.20
2018-02-19T16:17:42.706Z,13.40
2018-02-19T16:20:27.474Z,14.47
2018-02-19T16:27:46.545Z,13.77
2018-02-19T16:30:34.197Z,14.33
2018-02-19T16:33:09.661Z,13.20
2018-02-19T16:39:12.337Z,15.63
2018-02-19T16:41:50.679Z,13.73
2018-02-19T16:45:02.978Z,13.97
2018-02-19T16:57:27.412Z,12.23
2018-02-19T17:00:03.184Z,12.60
2018-02-19T17:06:40.990Z,13.30
2018-02-19T17:09:52.279Z,13.07
2018-02-19T17:12:24.435Z,13.20
2018-02-19T17:15:18.670Z,13.70
2018-02-19T17:18:04.273Z,14.53
2018-02-19T17:21:08.343Z,14.65
2018-02-19T17:24:07.826Z,14.00
2018-02-19T17:26:41.775Z,14.20
2018-02-19T17:29:22.684Z,14.37
2018-02-19T17:32:33.748Z,15.73
2018-02-19T17:36:07.969Z,15.00
2018-02-19T17:38:54.390Z,13.82
2018-02-19T17:44:53.600Z,15.93
2018-02-19T17:47:26.596Z,14.77
2018-02-19T17:50:03.424Z,14.63
2018-02-19T17:52:40.900Z,14.30
2018-02-19T17:55:26.844Z,15.40
2018-02-19T17:58:05.739Z,15.63
2018-02-19T18:00:56.391Z,16.27
2018-02-19T18:04:39.974Z,15.32
2018-02-19T18:10:46.239Z,13.67
2018-02-19T18:18:28.986Z,18.52
2018-02-19T18:21:06.109Z,22.02
2018-02-19T18:27:40.183Z,24.52
2018-02-19T18:37:24.993Z,16.87
2018-02-19T18:39:58.794Z,16.73
2018-02-19T18:43:24.320Z,16.20
2018-02-19T18:59:21.811Z,14.30
2018-02-19T19:02:54.037Z,14.90
2018-02-19T19:05:57.523Z,15.05
2018-02-19T19:09:59.259Z,14.68
2018-02-19T19:20:03.252Z,15.98
2018-02-19T19:30:05.438Z,15.82
2018-02-19T19:35:27.606Z,16.00
2018-02-19T19:38:16.155Z,22.65
2018-02-19T19:41:01.919Z,23.67
2018-02-19T19:43:48.710Z,21.08
2018-02-19T19:46:51.063Z,22.45
2018-02-19T19:53:18.975Z,17.60
2018-02-19T19:58:49.277Z,18.70
2018-02-19T20:01:39.454Z,21.37
2018-02-19T20:04:15.441Z,19.83
2018-02-19T20:07:04.331Z,20.55
2018-02-19T20:13:01.719Z,18.73
2018-02-19T20:16:18.886Z,18.73
2018-02-19T20:22:05.445Z,19.40
2018-02-19T20:24:51.374Z,18.37
2018-02-19T20:27:30.773Z,18.67
2018-02-19T20:30:28.201Z,19.58
2018-02-19T20:33:08.753Z,18.58
2018-02-19T20:36:04.725Z,18.10
2018-02-19T20:38:43.994Z,18.37
2018-02-19T20:41:41.162Z,19.15
2018-02-19T20:44:35.605Z,18.27
2018-02-19T20:47:18.596Z,18.95
2018-02-19T20:49:52.851Z,18.12
2018-02-19T20:52:46.142Z,18.58
2018-02-19T20:55:29.624Z,18.05
2018-02-19T21:04:17.121Z,18.70
2018-02-19T21:06:53.910Z,18.55
2018-02-19T21:10:17.068Z,19.52
2018-02-19T21:15:56.048Z,18.62
2018-02-19T21:18:30.503Z,18.95
2018-02-19T21:21:37.683Z,19.33
2018-02-19T21:24:09.856Z,19.08
2018-02-19T21:26:55.496Z,19.58
2018-02-19T21:29:56.205Z,18.77
2018-02-19T21:32:27.644Z,19.30
2018-02-19T21:35:22.510Z,20.40
2018-02-19T21:38:17.293Z,19.37
2018-02-19T21:40:51.339Z,19.33
2018-02-19T21:46:26.693Z,19.73
2018-02-19T21:49:04.525Z,20.37
2018-02-19T21:51:45.071Z,22.25
2018-02-19T21:54:21.966Z,20.80
2018-02-19T21:59:35.007Z,19.95
2018-02-19T22:02:34.238Z,21.20
2018-02-19T22:05:17.398Z,20.52
2018-02-19T22:07:49.447Z,20.62
2018-02-19T22:10:23.097Z,20.30
2018-02-19T22:12:56.971Z,20.25
2018-02-19T22:15:30.693Z,19.12
2018-02-19T22:18:19.937Z,19.42
2018-02-19T22:20:57.474Z,19.62
2018-02-19T22:23:37.375Z,18.55
2018-02-19T22:26:08.219Z,19.80
2018-02-19T22:28:39.763Z,25.10
2018-02-19T22:31:23.511Z,35.33
2018-02-19T22:33:59.045Z,26.08
2018-02-19T22:36:30.531Z,19.62
2018-02-19T22:39:01.963Z,19.25
2018-02-19T22:41:34.284Z,19.60
2018-02-19T22:44:05.147Z,19.02
2018-02-19T22:46:37.598Z,18.42
2018-02-19T22:49:08.585Z,20.52
2018-02-19T22:51:44.091Z,19.50
2018-02-19T22:54:23.155Z,20.50
2018-02-19T22:56:53.985Z,19.70
2018-02-19T22:59:24.037Z,20.27
2018-02-19T23:01:55.635Z,20.35
2018-02-19T23:04:41.948Z,20.02
2018-02-19T23:09:58.677Z,21.08
2018-02-19T23:12:30.842Z,21.75
2018-02-19T23:15:09.750Z,21.15
2018-02-19T23:17:40.135Z,20.92
2018-02-19T23:20:26.715Z,20.98
2018-02-19T23:22:58.010Z,19.70
2018-02-19T23:25:30.111Z,21.33
2018-02-19T23:30:56.262Z,20.12
2018-02-19T23:33:43.796Z,22.92
2018-02-19T23:36:22.033Z,22.73
2018-02-19T23:38:54.594Z,23.02
2018-02-19T23:41:26.666Z,22.30
2018-02-19T23:44:16.177Z,23.40
2018-02-19T23:47:16.784Z,20.60
2018-02-19T23:49:51.770Z,20.50
2018-02-19T23:52:32.154Z,19.50
2018-02-19T23:57:45.721Z,19.15
